sensor_id;sensor_type;location;lat;lon;timestamp;P1;durP1;ratioP1;P2;durP2;ratioP2
48667;SDS011;34453;52.198;5.004;2023-10-13T00:01:59;16.17;;;10.15;;
48667;SDS011;34453;52.198;5.004;2023-10-13T00:04:26;13.95;;;12.05;;
48667;SDS011;34453;52.198;5.004;2023-10-13T00:06:53;17.42;;;11.25;;
48667;SDS011;34453;52.198;5.004;2023-10-13T00:09:28;20.48;;;11.43;;
48667;SDS011;34453;52.198;5.004;2023-10-13T00:11:57;14.93;;;10.25;;
48667;SDS011;34453;52.198;5.004;2023-10-13T00:14:23;14.02;;;11.63;;
48667;SDS011;34453;52.198;5.004;2023-10-13T00:16:58;15.50;;;11.32;;
48667;SDS011;34453;52.198;5.004;2023-10-13T00:22:10;19.02;;;11.93;;
48667;SDS011;34453;52.198;5.004;2023-10-13T00:24:38;12.73;;;10.68;;
48667;SDS011;34453;52.198;5.004;2023-10-13T00:27:17;20.40;;;12.25;;
48667;SDS011;34453;52.198;5.004;2023-10-13T00:29:57;17.70;;;11.65;;
48667;SDS011;34453;52.198;5.004;2023-10-13T00:32:46;17.25;;;11.25;;
48667;SDS011;34453;52.198;5.004;2023-10-13T00:35:17;13.00;;;10.52;;
48667;SDS011;34453;52.198;5.004;2023-10-13T00:38:00;11.82;;;10.55;;
48667;SDS011;34453;52.198;5.004;2023-10-13T00:40:39;13.52;;;10.73;;
48667;SDS011;34453;52.198;5.004;2023-10-13T00:43:05;14.10;;;10.75;;
48667;SDS011;34453;52.198;5.004;2023-10-13T00:45:46;14.15;;;10.68;;
48667;SDS011;34453;52.198;5.004;2023-10-13T00:48:22;16.90;;;11.35;;
48667;SDS011;34453;52.198;5.004;2023-10-13T00:51:01;22.83;;;12.40;;
48667;SDS011;34453;52.198;5.004;2023-10-13T00:53:29;18.15;;;11.93;;
48667;SDS011;34453;52.198;5.004;2023-10-13T00:55:59;19.25;;;13.10;;
48667;SDS011;34453;52.198;5.004;2023-10-13T00:58:43;19.17;;;13.07;;
48667;SDS011;34453;52.198;5.004;2023-10-13T01:01:11;15.68;;;13.98;;
48667;SDS011;34453;52.198;5.004;2023-10-13T01:03:45;19.83;;;15.48;;
48667;SDS011;34453;52.198;5.004;2023-10-13T01:06:13;23.17;;;15.38;;
48667;SDS011;34453;52.198;5.004;2023-10-13T01:08:46;24.95;;;15.20;;
48667;SDS011;34453;52.198;5.004;2023-10-13T01:11:18;28.58;;;15.85;;
48667;SDS011;34453;52.198;5.004;2023-10-13T01:13:45;24.40;;;17.10;;
48667;SDS011;34453;52.198;5.004;2023-10-13T01:16:16;26.73;;;16.92;;
48667;SDS011;34453;52.198;5.004;2023-10-13T01:18:42;27.88;;;17.15;;
48667;SDS011;34453;52.198;5.004;2023-10-13T01:21:17;29.92;;;17.77;;
48667;SDS011;34453;52.198;5.004;2023-10-13T01:23:45;26.97;;;16.93;;
48667;SDS011;34453;52.198;5.004;2023-10-13T01:26:12;32.60;;;17.17;;
48667;SDS011;34453;52.198;5.004;2023-10-13T01:28:43;25.73;;;16.30;;
48667;SDS011;34453;52.198;5.004;2023-10-13T01:31:11;33.15;;;16.35;;
48667;SDS011;34453;52.198;5.004;2023-10-13T01:33:38;28.17;;;16.48;;
48667;SDS011;34453;52.198;5.004;2023-10-13T01:36:04;28.23;;;15.43;;
48667;SDS011;34453;52.198;5.004;2023-10-13T01:38:33;21.90;;;14.15;;
48667;SDS011;34453;52.198;5.004;2023-10-13T01:41:01;19.27;;;13.60;;
48667;SDS011;34453;52.198;5.004;2023-10-13T01:43:30;19.58;;;13.60;;
48667;SDS011;34453;52.198;5.004;2023-10-13T01:45:55;25.42;;;15.40;;
48667;SDS011;34453;52.198;5.004;2023-10-13T01:48:21;21.15;;;13.38;;
48667;SDS011;34453;52.198;5.004;2023-10-13T01:50:46;18.58;;;13.23;;
48667;SDS011;34453;52.198;5.004;2023-10-13T01:53:21;27.05;;;13.23;;
48667;SDS011;34453;52.198;5.004;2023-10-13T01:55:47;19.42;;;12.07;;
48667;SDS011;34453;52.198;5.004;2023-10-13T01:58:14;19.40;;;12.82;;
48667;SDS011;34453;52.198;5.004;2023-10-13T02:00:41;15.38;;;11.75;;
48667;SDS011;34453;52.198;5.004;2023-10-13T02:03:08;21.27;;;12.27;;
48667;SDS011;34453;52.198;5.004;2023-10-13T02:05:43;15.25;;;12.05;;
48667;SDS011;34453;52.198;5.004;2023-10-13T02:08:16;20.00;;;11.93;;
48667;SDS011;34453;52.198;5.004;2023-10-13T02:10:48;19.80;;;11.32;;
48667;SDS011;34453;52.198;5.004;2023-10-13T02:13:17;15.93;;;10.30;;
48667;SDS011;34453;52.198;5.004;2023-10-13T02:15:45;14.10;;;10.45;;
48667;SDS011;34453;52.198;5.004;2023-10-13T02:18:13;17.75;;;10.52;;
48667;SDS011;34453;52.198;5.004;2023-10-13T02:20:56;18.42;;;10.70;;
48667;SDS011;34453;52.198;5.004;2023-10-13T02:23:37;16.05;;;10.55;;
48667;SDS011;34453;52.198;5.004;2023-10-13T02:26:08;12.23;;;10.77;;
48667;SDS011;34453;52.198;5.004;2023-10-13T02:28:40;16.73;;;10.90;;
48667;SDS011;34453;52.198;5.004;2023-10-13T02:31:05;18.35;;;10.13;;
48667;SDS011;34453;52.198;5.004;2023-10-13T02:33:32;13.82;;;10.15;;
48667;SDS011;34453;52.198;5.004;2023-10-13T02:36:02;16.52;;;9.90;;
48667;SDS011;34453;52.198;5.004;2023-10-13T02:38:30;19.70;;;9.98;;
48667;SDS011;34453;52.198;5.004;2023-10-13T02:41:13;16.60;;;9.70;;
48667;SDS011;34453;52.198;5.004;2023-10-13T02:44:01;18.75;;;10.18;;
48667;SDS011;34453;52.198;5.004;2023-10-13T02:46:26;10.82;;;9.50;;
48667;SDS011;34453;52.198;5.004;2023-10-13T02:48:54;15.05;;;10.40;;
48667;SDS011;34453;52.198;5.004;2023-10-13T02:51:22;20.33;;;10.90;;
48667;SDS011;34453;52.198;5.004;2023-10-13T02:53:56;15.18;;;10.20;;
48667;SDS011;34453;52.198;5.004;2023-10-13T02:56:28;14.18;;;9.98;;
48667;SDS011;34453;52.198;5.004;2023-10-13T02:58:54;12.93;;;9.63;;
48667;SDS011;34453;52.198;5.004;2023-10-13T03:01:29;15.57;;;10.43;;
48667;SDS011;34453;52.198;5.004;2023-10-13T03:03:59;16.23;;;9.70;;
48667;SDS011;34453;52.198;5.004;2023-10-13T03:06:25;19.13;;;9.57;;
48667;SDS011;34453;52.198;5.004;2023-10-13T03:09:07;16.77;;;10.05;;
48667;SDS011;34453;52.198;5.004;2023-10-13T03:11:42;13.10;;;9.30;;
48667;SDS011;34453;52.198;5.004;2023-10-13T03:14:13;13.57;;;9.38;;
48667;SDS011;34453;52.198;5.004;2023-10-13T03:16:50;12.98;;;9.30;;
48667;SDS011;34453;52.198;5.004;2023-10-13T03:19:19;16.95;;;9.73;;
48667;SDS011;34453;52.198;5.004;2023-10-13T03:21:45;12.82;;;9.75;;
48667;SDS011;34453;52.198;5.004;2023-10-13T03:24:20;19.10;;;9.65;;
48667;SDS011;34453;52.198;5.004;2023-10-13T03:26:58;12.30;;;9.27;;
48667;SDS011;34453;52.198;5.004;2023-10-13T03:29:36;17.58;;;10.00;;
48667;SDS011;34453;52.198;5.004;2023-10-13T03:32:11;19.08;;;10.60;;
48667;SDS011;34453;52.198;5.004;2023-10-13T03:34:39;19.47;;;9.90;;
48667;SDS011;34453;52.198;5.004;2023-10-13T03:37:17;18.35;;;9.75;;
48667;SDS011;34453;52.198;5.004;2023-10-13T03:39:44;15.18;;;9.65;;
48667;SDS011;34453;52.198;5.004;2023-10-13T03:42:10;14.02;;;9.15;;
48667;SDS011;34453;52.198;5.004;2023-10-13T03:44:55;18.00;;;10.05;;
48667;SDS011;34453;52.198;5.004;2023-10-13T03:47:21;15.43;;;10.30;;
48667;SDS011;34453;52.198;5.004;2023-10-13T03:49:57;17.48;;;10.10;;
48667;SDS011;34453;52.198;5.004;2023-10-13T03:52:40;14.07;;;10.32;;
48667;SDS011;34453;52.198;5.004;2023-10-13T03:55:06;19.52;;;9.93;;
48667;SDS011;34453;52.198;5.004;2023-10-13T03:57:33;12.93;;;9.50;;
48667;SDS011;34453;52.198;5.004;2023-10-13T03:59:59;12.60;;;9.18;;
48667;SDS011;34453;52.198;5.004;2023-10-13T04:02:33;13.98;;;10.00;;
48667;SDS011;34453;52.198;5.004;2023-10-13T04:04:58;13.27;;;9.90;;
48667;SDS011;34453;52.198;5.004;2023-10-13T04:07:32;19.48;;;10.52;;
48667;SDS011;34453;52.198;5.004;2023-10-13T04:09:58;19.95;;;9.93;;
48667;SDS011;34453;52.198;5.004;2023-10-13T04:12:55;8.50;;;7.15;;
48667;SDS011;34453;52.198;5.004;2023-10-13T04:15:42;7.07;;;6.35;;
48667;SDS011;34453;52.198;5.004;2023-10-13T04:18:27;9.77;;;7.43;;
48667;SDS011;34453;52.198;5.004;2023-10-13T04:21:11;12.38;;;7.75;;
48667;SDS011;34453;52.198;5.004;2023-10-13T04:23:56;13.27;;;7.85;;
48667;SDS011;34453;52.198;5.004;2023-10-13T04:26:49;10.80;;;8.10;;
48667;SDS011;34453;52.198;5.004;2023-10-13T04:29:34;11.55;;;8.50;;
48667;SDS011;34453;52.198;5.004;2023-10-13T04:32:18;14.60;;;8.63;;
48667;SDS011;34453;52.198;5.004;2023-10-13T04:35:04;12.95;;;9.80;;
48667;SDS011;34453;52.198;5.004;2023-10-13T04:37:39;15.35;;;7.90;;
48667;SDS011;34453;52.198;5.004;2023-10-13T04:40:23;16.17;;;8.63;;
48667;SDS011;34453;52.198;5.004;2023-10-13T04:42:53;9.50;;;8.10;;
48667;SDS011;34453;52.198;5.004;2023-10-13T04:45:21;10.43;;;9.43;;
48667;SDS011;34453;52.198;5.004;2023-10-13T04:48:12;11.10;;;8.95;;
48667;SDS011;34453;52.198;5.004;2023-10-13T04:50:47;9.82;;;8.45;;
48667;SDS011;34453;52.198;5.004;2023-10-13T04:53:18;8.93;;;8.02;;
48667;SDS011;34453;52.198;5.004;2023-10-13T04:55:58;8.75;;;7.95;;
48667;SDS011;34453;52.198;5.004;2023-10-13T04:58:28;9.02;;;7.28;;
48667;SDS011;34453;52.198;5.004;2023-10-13T05:01:03;7.30;;;6.70;;
48667;SDS011;34453;52.198;5.004;2023-10-13T05:03:47;10.30;;;7.95;;
48667;SDS011;34453;52.198;5.004;2023-10-13T05:06:32;8.98;;;8.10;;
48667;SDS011;34453;52.198;5.004;2023-10-13T05:09:21;8.25;;;7.72;;
48667;SDS011;34453;52.198;5.004;2023-10-13T05:12:04;10.48;;;7.05;;
48667;SDS011;34453;52.198;5.004;2023-10-13T05:14:49;8.70;;;6.85;;
48667;SDS011;34453;52.198;5.004;2023-10-13T05:17:33;9.02;;;7.10;;
48667;SDS011;34453;52.198;5.004;2023-10-13T05:20:17;6.55;;;5.97;;
48667;SDS011;34453;52.198;5.004;2023-10-13T05:23:00;6.90;;;6.18;;
48667;SDS011;34453;52.198;5.004;2023-10-13T05:25:44;14.00;;;6.75;;
48667;SDS011;34453;52.198;5.004;2023-10-13T05:28:28;7.57;;;6.03;;
48667;SDS011;34453;52.198;5.004;2023-10-13T05:31:12;8.85;;;6.15;;
48667;SDS011;34453;52.198;5.004;2023-10-13T05:33:56;7.40;;;5.40;;
48667;SDS011;34453;52.198;5.004;2023-10-13T05:36:40;9.52;;;6.07;;
48667;SDS011;34453;52.198;5.004;2023-10-13T05:39:24;7.65;;;4.88;;
48667;SDS011;34453;52.198;5.004;2023-10-13T05:42:08;7.68;;;4.05;;
48667;SDS011;34453;52.198;5.004;2023-10-13T05:44:52;8.57;;;5.07;;
48667;SDS011;34453;52.198;5.004;2023-10-13T05:47:49;10.45;;;4.20;;
48667;SDS011;34453;52.198;5.004;2023-10-13T05:50:26;6.22;;;4.03;;
48667;SDS011;34453;52.198;5.004;2023-10-13T05:52:51;16.58;;;3.80;;
48667;SDS011;34453;52.198;5.004;2023-10-13T05:55:29;12.15;;;4.88;;
48667;SDS011;34453;52.198;5.004;2023-10-13T05:58:14;8.68;;;3.72;;
48667;SDS011;34453;52.198;5.004;2023-10-13T06:00:59;17.45;;;3.92;;
48667;SDS011;34453;52.198;5.004;2023-10-13T06:03:43;7.25;;;3.33;;
48667;SDS011;34453;52.198;5.004;2023-10-13T06:06:27;9.55;;;4.85;;
48667;SDS011;34453;52.198;5.004;2023-10-13T06:09:12;11.02;;;3.97;;
48667;SDS011;34453;52.198;5.004;2023-10-13T06:11:56;9.93;;;3.50;;
48667;SDS011;34453;52.198;5.004;2023-10-13T06:14:40;5.97;;;3.20;;
48667;SDS011;34453;52.198;5.004;2023-10-13T06:17:24;8.10;;;3.80;;
48667;SDS011;34453;52.198;5.004;2023-10-13T06:20:08;10.25;;;4.28;;
48667;SDS011;34453;52.198;5.004;2023-10-13T06:22:52;8.05;;;3.90;;
48667;SDS011;34453;52.198;5.004;2023-10-13T06:25:37;7.75;;;3.83;;
48667;SDS011;34453;52.198;5.004;2023-10-13T06:28:21;9.98;;;4.20;;
48667;SDS011;34453;52.198;5.004;2023-10-13T06:31:05;11.35;;;4.20;;
48667;SDS011;34453;52.198;5.004;2023-10-13T06:33:37;8.43;;;4.15;;
48667;SDS011;34453;52.198;5.004;2023-10-13T06:36:10;10.07;;;4.78;;
48667;SDS011;34453;52.198;5.004;2023-10-13T06:38:36;11.00;;;4.82;;
48667;SDS011;34453;52.198;5.004;2023-10-13T06:41:05;8.77;;;4.75;;
48667;SDS011;34453;52.198;5.004;2023-10-13T06:43:31;20.20;;;6.53;;
48667;SDS011;34453;52.198;5.004;2023-10-13T06:46:11;13.20;;;5.07;;
48667;SDS011;34453;52.198;5.004;2023-10-13T06:48:40;11.93;;;5.57;;
48667;SDS011;34453;52.198;5.004;2023-10-13T06:51:06;8.23;;;4.43;;
48667;SDS011;34453;52.198;5.004;2023-10-13T06:53:50;6.85;;;4.45;;
48667;SDS011;34453;52.198;5.004;2023-10-13T06:56:21;9.68;;;5.18;;
48667;SDS011;34453;52.198;5.004;2023-10-13T06:58:52;10.40;;;5.70;;
48667;SDS011;34453;52.198;5.004;2023-10-13T07:01:25;13.13;;;5.00;;
48667;SDS011;34453;52.198;5.004;2023-10-13T07:03:51;7.43;;;4.88;;
48667;SDS011;34453;52.198;5.004;2023-10-13T07:06:20;9.65;;;5.45;;
48667;SDS011;34453;52.198;5.004;2023-10-13T07:08:46;11.07;;;5.85;;
48667;SDS011;34453;52.198;5.004;2023-10-13T07:11:27;7.03;;;6.32;;
48667;SDS011;34453;52.198;5.004;2023-10-13T07:14:02;14.55;;;7.15;;
48667;SDS011;34453;52.198;5.004;2023-10-13T07:16:41;11.38;;;7.28;;
48667;SDS011;34453;52.198;5.004;2023-10-13T07:19:11;9.73;;;8.80;;
48667;SDS011;34453;52.198;5.004;2023-10-13T07:21:45;15.23;;;8.75;;
48667;SDS011;34453;52.198;5.004;2023-10-13T07:24:12;16.10;;;9.77;;
48667;SDS011;34453;52.198;5.004;2023-10-13T07:26:38;12.95;;;10.80;;
48667;SDS011;34453;52.198;5.004;2023-10-13T07:29:08;16.63;;;10.40;;
48667;SDS011;34453;52.198;5.004;2023-10-13T07:31:34;13.35;;;9.48;;
48667;SDS011;34453;52.198;5.004;2023-10-13T07:34:00;10.75;;;8.95;;
48667;SDS011;34453;52.198;5.004;2023-10-13T07:36:30;12.07;;;9.30;;
48667;SDS011;34453;52.198;5.004;2023-10-13T07:39:04;10.27;;;8.80;;
48667;SDS011;34453;52.198;5.004;2023-10-13T07:41:50;10.23;;;8.52;;
48667;SDS011;34453;52.198;5.004;2023-10-13T07:44:19;10.20;;;8.55;;
48667;SDS011;34453;52.198;5.004;2023-10-13T07:46:50;14.90;;;7.20;;
48667;SDS011;34453;52.198;5.004;2023-10-13T07:49:31;12.85;;;7.82;;
48667;SDS011;34453;52.198;5.004;2023-10-13T07:51:58;16.98;;;7.88;;
48667;SDS011;34453;52.198;5.004;2023-10-13T07:54:26;17.08;;;6.68;;
48667;SDS011;34453;52.198;5.004;2023-10-13T07:56:52;14.30;;;6.82;;
48667;SDS011;34453;52.198;5.004;2023-10-13T07:59:20;12.20;;;6.20;;
48667;SDS011;34453;52.198;5.004;2023-10-13T08:01:47;16.02;;;6.05;;
48667;SDS011;34453;52.198;5.004;2023-10-13T08:04:33;12.65;;;5.65;;
48667;SDS011;34453;52.198;5.004;2023-10-13T08:07:00;13.27;;;5.10;;
48667;SDS011;34453;52.198;5.004;2023-10-13T08:09:37;42.63;;;8.23;;
48667;SDS011;34453;52.198;5.004;2023-10-13T08:12:07;14.13;;;5.13;;
48667;SDS011;34453;52.198;5.004;2023-10-13T08:14:37;20.58;;;5.60;;
48667;SDS011;34453;52.198;5.004;2023-10-13T08:17:08;7.38;;;4.63;;
48667;SDS011;34453;52.198;5.004;2023-10-13T08:19:36;10.98;;;4.82;;
48667;SDS011;34453;52.198;5.004;2023-10-13T08:22:08;14.27;;;5.10;;
48667;SDS011;34453;52.198;5.004;2023-10-13T08:24:43;13.57;;;4.95;;
48667;SDS011;34453;52.198;5.004;2023-10-13T08:27:09;14.63;;;5.35;;
48667;SDS011;34453;52.198;5.004;2023-10-13T08:29:54;17.40;;;5.70;;
48667;SDS011;34453;52.198;5.004;2023-10-13T08:32:26;12.45;;;5.10;;
48667;SDS011;34453;52.198;5.004;2023-10-13T08:34:56;8.57;;;4.68;;
48667;SDS011;34453;52.198;5.004;2023-10-13T08:37:23;11.32;;;5.97;;
48667;SDS011;34453;52.198;5.004;2023-10-13T08:39:48;11.55;;;4.93;;
48667;SDS011;34453;52.198;5.004;2023-10-13T08:42:30;12.10;;;4.75;;
48667;SDS011;34453;52.198;5.004;2023-10-13T08:45:07;10.48;;;4.57;;
48667;SDS011;34453;52.198;5.004;2023-10-13T08:48:06;6.75;;;3.70;;
48667;SDS011;34453;52.198;5.004;2023-10-13T08:50:45;19.48;;;4.32;;
48667;SDS011;34453;52.198;5.004;2023-10-13T08:53:28;9.73;;;5.47;;
48667;SDS011;34453;52.198;5.004;2023-10-13T08:56:01;8.65;;;3.75;;
48667;SDS011;34453;52.198;5.004;2023-10-13T09:01:20;12.90;;;4.20;;
48667;SDS011;34453;52.198;5.004;2023-10-13T09:04:00;16.13;;;4.55;;
48667;SDS011;34453;52.198;5.004;2023-10-13T09:09:24;9.98;;;4.15;;
48667;SDS011;34453;52.198;5.004;2023-10-13T09:12:16;12.77;;;4.65;;
48667;SDS011;34453;52.198;5.004;2023-10-13T09:14:50;14.85;;;4.00;;
48667;SDS011;34453;52.198;5.004;2023-10-13T09:17:25;16.50;;;4.10;;
48667;SDS011;34453;52.198;5.004;2023-10-13T09:19:59;13.88;;;5.00;;
48667;SDS011;34453;52.198;5.004;2023-10-13T09:22:50;11.07;;;4.97;;
48667;SDS011;34453;52.198;5.004;2023-10-13T09:25:34;10.80;;;4.63;;
48667;SDS011;34453;52.198;5.004;2023-10-13T09:28:11;12.55;;;4.30;;
48667;SDS011;34453;52.198;5.004;2023-10-13T09:33:12;19.70;;;5.45;;
48667;SDS011;34453;52.198;5.004;2023-10-13T09:35:43;17.40;;;4.63;;
48667;SDS011;34453;52.198;5.004;2023-10-13T09:38:16;18.65;;;5.07;;
48667;SDS011;34453;52.198;5.004;2023-10-13T09:40:42;13.50;;;4.07;;
48667;SDS011;34453;52.198;5.004;2023-10-13T09:43:27;13.40;;;4.38;;
48667;SDS011;34453;52.198;5.004;2023-10-13T09:45:59;22.05;;;5.43;;
48667;SDS011;34453;52.198;5.004;2023-10-13T09:48:33;12.35;;;4.78;;
48667;SDS011;34453;52.198;5.004;2023-10-13T09:51:06;13.68;;;4.32;;
48667;SDS011;34453;52.198;5.004;2023-10-13T09:53:40;12.73;;;5.28;;
48667;SDS011;34453;52.198;5.004;2023-10-13T09:56:20;8.77;;;4.47;;
48667;SDS011;34453;52.198;5.004;2023-10-13T09:58:54;10.15;;;4.35;;
48667;SDS011;34453;52.198;5.004;2023-10-13T10:01:27;12.18;;;4.50;;
48667;SDS011;34453;52.198;5.004;2023-10-13T10:04:06;12.68;;;5.25;;
48667;SDS011;34453;52.198;5.004;2023-10-13T10:06:34;18.35;;;4.60;;
48667;SDS011;34453;52.198;5.004;2023-10-13T10:09:12;12.77;;;4.32;;
48667;SDS011;34453;52.198;5.004;2023-10-13T10:14:12;11.00;;;4.18;;
48667;SDS011;34453;52.198;5.004;2023-10-13T10:19:44;9.15;;;4.28;;
48667;SDS011;34453;52.198;5.004;2023-10-13T10:22:24;11.88;;;4.25;;
48667;SDS011;34453;52.198;5.004;2023-10-13T10:24:59;23.08;;;4.82;;
48667;SDS011;34453;52.198;5.004;2023-10-13T10:27:28;12.90;;;4.68;;
48667;SDS011;34453;52.198;5.004;2023-10-13T10:29:55;16.48;;;5.03;;
48667;SDS011;34453;52.198;5.004;2023-10-13T10:32:31;13.68;;;4.88;;
48667;SDS011;34453;52.198;5.004;2023-10-13T10:35:07;12.98;;;4.47;;
48667;SDS011;34453;52.198;5.004;2023-10-13T10:37:34;9.23;;;4.20;;
48667;SDS011;34453;52.198;5.004;2023-10-13T10:40:06;15.32;;;4.80;;
48667;SDS011;34453;52.198;5.004;2023-10-13T10:42:33;15.37;;;5.57;;
48667;SDS011;34453;52.198;5.004;2023-10-13T10:44:59;11.85;;;4.80;;
48667;SDS011;34453;52.198;5.004;2023-10-13T10:47:33;12.90;;;4.40;;
48667;SDS011;34453;52.198;5.004;2023-10-13T10:50:03;12.57;;;4.40;;
48667;SDS011;34453;52.198;5.004;2023-10-13T10:52:43;18.55;;;4.53;;
48667;SDS011;34453;52.198;5.004;2023-10-13T10:55:08;16.80;;;5.60;;
48667;SDS011;34453;52.198;5.004;2023-10-13T10:57:36;13.20;;;4.63;;
48667;SDS011;34453;52.198;5.004;2023-10-13T11:02:52;9.18;;;4.15;;
48667;SDS011;34453;52.198;5.004;2023-10-13T11:05:19;20.35;;;5.70;;
48667;SDS011;34453;52.198;5.004;2023-10-13T11:07:45;12.52;;;4.70;;
48667;SDS011;34453;52.198;5.004;2023-10-13T11:10:17;19.92;;;5.10;;
48667;SDS011;34453;52.198;5.004;2023-10-13T11:12:59;16.35;;;5.22;;
48667;SDS011;34453;52.198;5.004;2023-10-13T11:15:42;16.90;;;4.80;;
48667;SDS011;34453;52.198;5.004;2023-10-13T11:18:11;13.38;;;5.25;;
48667;SDS011;34453;52.198;5.004;2023-10-13T11:20:59;14.75;;;5.63;;
48667;SDS011;34453;52.198;5.004;2023-10-13T11:23:24;12.55;;;4.90;;
48667;SDS011;34453;52.198;5.004;2023-10-13T11:25:57;19.38;;;5.43;;
48667;SDS011;34453;52.198;5.004;2023-10-13T11:28:26;14.30;;;5.30;;
48667;SDS011;34453;52.198;5.004;2023-10-13T11:30:52;15.40;;;5.38;;
48667;SDS011;34453;52.198;5.004;2023-10-13T11:33:22;10.68;;;4.50;;
48667;SDS011;34453;52.198;5.004;2023-10-13T11:35:51;18.75;;;6.10;;
48667;SDS011;34453;52.198;5.004;2023-10-13T11:38:28;17.35;;;5.43;;
48667;SDS011;34453;52.198;5.004;2023-10-13T11:41:14;19.67;;;6.63;;
48667;SDS011;34453;52.198;5.004;2023-10-13T11:43:45;17.85;;;5.30;;
48667;SDS011;34453;52.198;5.004;2023-10-13T11:46:17;7.50;;;4.15;;
48667;SDS011;34453;52.198;5.004;2023-10-13T11:49:05;21.30;;;5.40;;
48667;SDS011;34453;52.198;5.004;2023-10-13T11:51:40;15.75;;;6.25;;
48667;SDS011;34453;52.198;5.004;2023-10-13T11:54:10;22.58;;;6.03;;
48667;SDS011;34453;52.198;5.004;2023-10-13T11:56:40;10.23;;;4.28;;
48667;SDS011;34453;52.198;5.004;2023-10-13T11:59:06;13.32;;;4.63;;
48667;SDS011;34453;52.198;5.004;2023-10-13T12:01:41;10.05;;;4.97;;
48667;SDS011;34453;52.198;5.004;2023-10-13T12:04:26;22.33;;;5.45;;
48667;SDS011;34453;52.198;5.004;2023-10-13T12:07:11;14.35;;;4.63;;
48667;SDS011;34453;52.198;5.004;2023-10-13T12:09:44;9.57;;;4.45;;
48667;SDS011;34453;52.198;5.004;2023-10-13T12:12:23;16.60;;;4.82;;
48667;SDS011;34453;52.198;5.004;2023-10-13T12:14:53;14.45;;;4.65;;
48667;SDS011;34453;52.198;5.004;2023-10-13T12:17:27;18.30;;;4.82;;
48667;SDS011;34453;52.198;5.004;2023-10-13T12:19:59;17.33;;;5.25;;
48667;SDS011;34453;52.198;5.004;2023-10-13T12:22:26;11.32;;;5.43;;
48667;SDS011;34453;52.198;5.004;2023-10-13T12:25:03;25.60;;;5.43;;
48667;SDS011;34453;52.198;5.004;2023-10-13T12:27:52;22.08;;;4.72;;
48667;SDS011;34453;52.198;5.004;2023-10-13T12:30:37;15.32;;;5.15;;
48667;SDS011;34453;52.198;5.004;2023-10-13T12:33:18;14.73;;;4.85;;
48667;SDS011;34453;52.198;5.004;2023-10-13T12:35:56;16.25;;;5.60;;
48667;SDS011;34453;52.198;5.004;2023-10-13T12:38:34;25.33;;;7.10;;
48667;SDS011;34453;52.198;5.004;2023-10-13T12:41:12;15.52;;;5.15;;
48667;SDS011;34453;52.198;5.004;2023-10-13T12:43:59;12.52;;;5.40;;
48667;SDS011;34453;52.198;5.004;2023-10-13T12:46:44;13.75;;;6.10;;
48667;SDS011;34453;52.198;5.004;2023-10-13T12:49:28;8.52;;;4.53;;
48667;SDS011;34453;52.198;5.004;2023-10-13T12:52:08;20.45;;;4.88;;
48667;SDS011;34453;52.198;5.004;2023-10-13T12:57:32;21.50;;;5.37;;
48667;SDS011;34453;52.198;5.004;2023-10-13T12:59:58;14.60;;;4.78;;
48667;SDS011;34453;52.198;5.004;2023-10-13T13:02:24;16.35;;;5.78;;
48667;SDS011;34453;52.198;5.004;2023-10-13T13:04:51;13.80;;;5.00;;
48667;SDS011;34453;52.198;5.004;2023-10-13T13:07:30;21.23;;;6.10;;
48667;SDS011;34453;52.198;5.004;2023-10-13T13:09:56;19.58;;;6.18;;
48667;SDS011;34453;52.198;5.004;2023-10-13T13:12:25;20.52;;;5.30;;
48667;SDS011;34453;52.198;5.004;2023-10-13T13:14:53;12.77;;;4.00;;
48667;SDS011;34453;52.198;5.004;2023-10-13T13:17:20;15.93;;;5.88;;
48667;SDS011;34453;52.198;5.004;2023-10-13T13:19:46;13.98;;;5.00;;
48667;SDS011;34453;52.198;5.004;2023-10-13T13:22:11;14.68;;;5.80;;
48667;SDS011;34453;52.198;5.004;2023-10-13T13:24:40;17.35;;;6.50;;
48667;SDS011;34453;52.198;5.004;2023-10-13T13:27:12;17.65;;;6.15;;
48667;SDS011;34453;52.198;5.004;2023-10-13T13:29:42;13.73;;;5.63;;
48667;SDS011;34453;52.198;5.004;2023-10-13T13:32:08;11.35;;;5.00;;
48667;SDS011;34453;52.198;5.004;2023-10-13T13:34:47;25.63;;;6.28;;
48667;SDS011;34453;52.198;5.004;2023-10-13T13:37:20;17.17;;;5.65;;
48667;SDS011;34453;52.198;5.004;2023-10-13T13:39:46;21.40;;;6.80;;
48667;SDS011;34453;52.198;5.004;2023-10-13T13:42:12;11.13;;;5.88;;
48667;SDS011;34453;52.198;5.004;2023-10-13T13:44:43;15.52;;;5.20;;
48667;SDS011;34453;52.198;5.004;2023-10-13T13:47:12;15.50;;;5.57;;
48667;SDS011;34453;52.198;5.004;2023-10-13T13:49:39;14.15;;;5.30;;
48667;SDS011;34453;52.198;5.004;2023-10-13T13:52:08;13.43;;;5.50;;
48667;SDS011;34453;52.198;5.004;2023-10-13T13:54:34;18.30;;;6.22;;
48667;SDS011;34453;52.198;5.004;2023-10-13T13:57:00;11.60;;;5.93;;
48667;SDS011;34453;52.198;5.004;2023-10-13T13:59:26;12.80;;;6.25;;
48667;SDS011;34453;52.198;5.004;2023-10-13T14:01:51;13.65;;;5.75;;
48667;SDS011;34453;52.198;5.004;2023-10-13T14:04:18;10.07;;;5.75;;
48667;SDS011;34453;52.198;5.004;2023-10-13T14:06:44;16.90;;;6.65;;
48667;SDS011;34453;52.198;5.004;2023-10-13T14:09:10;17.05;;;7.00;;
48667;SDS011;34453;52.198;5.004;2023-10-13T14:11:55;12.15;;;5.78;;
48667;SDS011;34453;52.198;5.004;2023-10-13T14:14:39;16.80;;;6.40;;
48667;SDS011;34453;52.198;5.004;2023-10-13T14:17:12;16.80;;;6.18;;
48667;SDS011;34453;52.198;5.004;2023-10-13T14:19:38;19.05;;;7.22;;
48667;SDS011;34453;52.198;5.004;2023-10-13T14:22:06;21.02;;;6.80;;
48667;SDS011;34453;52.198;5.004;2023-10-13T14:24:32;17.30;;;6.85;;
48667;SDS011;34453;52.198;5.004;2023-10-13T14:27:00;19.33;;;6.50;;
48667;SDS011;34453;52.198;5.004;2023-10-13T14:29:33;22.75;;;7.00;;
48667;SDS011;34453;52.198;5.004;2023-10-13T14:32:08;16.27;;;6.65;;
48667;SDS011;34453;52.198;5.004;2023-10-13T14:34:44;14.15;;;5.82;;
48667;SDS011;34453;52.198;5.004;2023-10-13T14:37:19;16.48;;;4.32;;
48667;SDS011;34453;52.198;5.004;2023-10-13T14:40:06;13.10;;;5.30;;
48667;SDS011;34453;52.198;5.004;2023-10-13T14:42:37;12.68;;;4.47;;
48667;SDS011;34453;52.198;5.004;2023-10-13T14:45:08;6.60;;;3.58;;
48667;SDS011;34453;52.198;5.004;2023-10-13T14:47:37;7.70;;;4.07;;
48667;SDS011;34453;52.198;5.004;2023-10-13T14:50:04;7.32;;;2.67;;
48667;SDS011;34453;52.198;5.004;2023-10-13T14:52:30;5.80;;;2.33;;
48667;SDS011;34453;52.198;5.004;2023-10-13T14:54:57;5.65;;;3.78;;
48667;SDS011;34453;52.198;5.004;2023-10-13T14:57:23;10.95;;;2.90;;
48667;SDS011;34453;52.198;5.004;2023-10-13T14:59:52;10.95;;;3.00;;
48667;SDS011;34453;52.198;5.004;2023-10-13T15:02:18;10.15;;;3.70;;
48667;SDS011;34453;52.198;5.004;2023-10-13T15:04:44;13.43;;;3.20;;
48667;SDS011;34453;52.198;5.004;2023-10-13T15:07:13;17.50;;;4.53;;
48667;SDS011;34453;52.198;5.004;2023-10-13T15:09:43;13.45;;;3.85;;
48667;SDS011;34453;52.198;5.004;2023-10-13T15:12:12;16.92;;;4.35;;
48667;SDS011;34453;52.198;5.004;2023-10-13T15:14:38;19.33;;;5.13;;
48667;SDS011;34453;52.198;5.004;2023-10-13T15:17:07;14.57;;;5.32;;
48667;SDS011;34453;52.198;5.004;2023-10-13T15:19:34;19.90;;;5.10;;
48667;SDS011;34453;52.198;5.004;2023-10-13T15:22:08;15.25;;;4.93;;
48667;SDS011;34453;52.198;5.004;2023-10-13T15:24:50;18.58;;;6.53;;
48667;SDS011;34453;52.198;5.004;2023-10-13T15:27:26;16.88;;;5.32;;
48667;SDS011;34453;52.198;5.004;2023-10-13T15:29:54;29.23;;;7.18;;
48667;SDS011;34453;52.198;5.004;2023-10-13T15:32:19;20.80;;;5.72;;
48667;SDS011;34453;52.198;5.004;2023-10-13T15:35:04;18.23;;;5.82;;